createdAt,value
2018-06-25T00:00:43.306Z,15.00
2018-06-25T00:02:48.721Z,14.90
2018-06-25T00:04:53.723Z,15.00
2018-06-25T00:06:58.634Z,15.00
2018-06-25T00:09:04.107Z,15.20
2018-06-25T00:11:09.101Z,15.20
2018-06-25T00:13:15.354Z,15.20
2018-06-25T00:15:20.313Z,15.20
2018-06-25T00:17:25.305Z,15.30
2018-06-25T00:19:30.327Z,15.20
2018-06-25T00:21:35.319Z,15.30
2018-06-25T00:23:40.444Z,15.20
2018-06-25T00:25:46.028Z,15.10
2018-06-25T00:27:51.074Z,15.30
2018-06-25T00:29:56.169Z,15.30
2018-06-25T00:32:02.166Z,15.30
2018-06-25T00:34:07.564Z,15.30
2018-06-25T00:36:12.492Z,15.30
2018-06-25T00:38:17.473Z,15.30
2018-06-25T00:40:27.322Z,15.20
2018-06-25T00:42:32.223Z,15.30
2018-06-25T00:44:37.549Z,15.20
2018-06-25T00:46:42.528Z,15.30
2018-06-25T00:48:47.481Z,15.30
2018-06-25T00:50:52.902Z,15.30
2018-06-25T00:52:57.974Z,15.40
2018-06-25T00:57:07.329Z,15.30
2018-06-25T00:59:23.386Z,15.40
2018-06-25T01:01:28.277Z,15.30
2018-06-25T01:03:34.415Z,15.30
2018-06-25T01:05:39.392Z,15.30
2018-06-25T01:09:55.790Z,15.10
2018-06-25T01:12:00.826Z,15.40
2018-06-25T01:14:05.942Z,15.00
2018-06-25T01:16:11.488Z,15.10
2018-06-25T01:18:16.536Z,15.30
2018-06-25T01:20:21.612Z,15.30
2018-06-25T01:22:26.860Z,15.40
2018-06-25T01:24:32.351Z,15.40
2018-06-25T01:26:37.379Z,15.30
2018-06-25T01:28:42.387Z,15.40
2018-06-25T01:30:47.450Z,15.30
2018-06-25T01:32:52.342Z,15.40
2018-06-25T01:34:57.307Z,15.40
2018-06-25T01:37:02.556Z,15.40
2018-06-25T01:39:09.818Z,15.30
2018-06-25T01:41:15.745Z,15.40
2018-06-25T01:43:20.978Z,15.30
2018-06-25T01:45:26.073Z,15.30
2018-06-25T01:47:31.206Z,15.40
2018-06-25T01:49:36.412Z,15.40
2018-06-25T01:53:46.884Z,15.30
2018-06-25T01:55:52.439Z,15.40
2018-06-25T01:57:57.909Z,15.40
2018-06-25T02:00:03.957Z,15.40
2018-06-25T02:02:09.875Z,15.30
2018-06-25T02:04:15.652Z,15.40
2018-06-25T02:06:21.086Z,15.40
2018-06-25T02:08:26.431Z,15.40
2018-06-25T02:10:32.330Z,15.40
2018-06-25T02:12:37.254Z,15.30
2018-06-25T02:14:42.275Z,15.30
2018-06-25T02:16:47.241Z,15.30
2018-06-25T02:18:52.173Z,15.20
2018-06-25T02:20:57.194Z,15.30
2018-06-25T02:23:02.204Z,15.20
2018-06-25T02:25:07.246Z,15.30
2018-06-25T02:27:12.224Z,15.40
2018-06-25T02:29:17.209Z,15.40
2018-06-25T02:31:22.239Z,15.40
2018-06-25T02:33:27.232Z,15.40
2018-06-25T02:35:32.599Z,15.50
2018-06-25T02:37:37.887Z,15.60
2018-06-25T02:39:43.935Z,15.50
2018-06-25T02:41:48.933Z,15.50
2018-06-25T02:43:53.862Z,15.40
2018-06-25T02:45:58.962Z,15.40
2018-06-25T02:48:04.206Z,15.30
2018-06-25T02:50:09.736Z,15.30
2018-06-25T02:52:14.687Z,15.30
2018-06-25T02:54:20.555Z,15.30
2018-06-25T02:56:26.385Z,15.30
2018-06-25T02:58:31.384Z,15.30
2018-06-25T03:00:36.358Z,15.30
2018-06-25T03:02:41.638Z,15.30
2018-06-25T03:04:46.582Z,15.30
2018-06-25T03:06:51.515Z,15.30
2018-06-25T03:08:56.849Z,15.30
2018-06-25T03:11:01.812Z,15.30
2018-06-25T03:13:06.804Z,15.30
2018-06-25T03:15:12.596Z,15.30
2018-06-25T03:17:17.616Z,15.30
2018-06-25T03:19:22.627Z,15.20
2018-06-25T03:21:27.659Z,15.20
2018-06-25T03:23:32.692Z,15.10
2018-06-25T03:25:37.665Z,15.20
2018-06-25T03:27:43.151Z,15.10
2018-06-25T03:29:48.210Z,15.20
2018-06-25T03:31:53.686Z,15.30
2018-06-25T03:33:58.693Z,15.20
2018-06-25T03:36:04.275Z,15.20
2018-06-25T03:38:09.371Z,15.20
2018-06-25T03:40:14.314Z,15.20
2018-06-25T03:42:19.269Z,15.30
2018-06-25T03:44:25.992Z,15.30
2018-06-25T03:46:31.131Z,15.20
2018-06-25T03:48:36.492Z,15.20
2018-06-25T03:50:41.467Z,15.20
2018-06-25T03:52:46.403Z,15.20
2018-06-25T03:54:51.349Z,15.20
2018-06-25T03:56:56.318Z,15.20
2018-06-25T03:59:01.272Z,15.20
2018-06-25T04:01:06.775Z,15.20
2018-06-25T04:03:12.246Z,15.20
2018-06-25T04:05:17.756Z,15.20
2018-06-25T04:07:22.687Z,15.20
2018-06-25T04:09:27.676Z,15.20
2018-06-25T04:11:32.596Z,15.20
2018-06-25T04:13:37.587Z,15.20
2018-06-25T04:15:42.514Z,15.20
2018-06-25T04:17:47.447Z,15.10
2018-06-25T04:19:52.454Z,15.00
2018-06-25T04:21:57.650Z,15.10
2018-06-25T04:24:02.702Z,15.10
2018-06-25T04:26:07.711Z,15.00
2018-06-25T04:28:12.647Z,14.90
2018-06-25T04:30:17.622Z,15.00
2018-06-25T04:32:22.676Z,15.10
2018-06-25T04:34:27.702Z,15.00
2018-06-25T04:36:32.671Z,15.00
2018-06-25T04:38:37.599Z,15.00
2018-06-25T04:40:42.643Z,14.90
2018-06-25T04:42:47.590Z,14.90
2018-06-25T04:44:52.573Z,14.90
2018-06-25T04:46:57.575Z,15.00
2018-06-25T04:49:02.583Z,15.10
2018-06-25T04:51:08.195Z,15.00
2018-06-25T04:53:13.144Z,15.00
2018-06-25T04:55:18.477Z,15.10
2018-06-25T04:57:24.207Z,14.90
2018-06-25T04:59:29.144Z,15.00
2018-06-25T05:01:34.091Z,15.00
2018-06-25T05:03:39.183Z,15.10
2018-06-25T05:05:44.678Z,15.00
2018-06-25T05:07:50.262Z,15.10
2018-06-25T05:09:55.397Z,15.00
2018-06-25T05:12:00.694Z,15.10
2018-06-25T05:14:05.850Z,15.20
2018-06-25T05:16:10.814Z,15.10
2018-06-25T05:18:15.798Z,15.10
2018-06-25T05:20:20.871Z,15.20
2018-06-25T05:22:26.794Z,15.10
2018-06-25T05:24:31.822Z,15.20
2018-06-25T05:26:36.695Z,15.30
2018-06-25T05:28:41.683Z,15.40
2018-06-25T05:30:46.697Z,15.40
2018-06-25T05:32:51.643Z,15.40
2018-06-25T05:34:56.676Z,15.40
2018-06-25T05:37:01.618Z,15.20
2018-06-25T05:39:09.603Z,15.30
2018-06-25T05:41:14.677Z,15.40
2018-06-25T05:43:20.003Z,15.40
2018-06-25T05:45:25.004Z,15.50
2018-06-25T05:47:30.151Z,15.40
2018-06-25T05:49:35.103Z,15.40
2018-06-25T05:51:40.813Z,15.40
2018-06-25T05:53:45.822Z,15.50
2018-06-25T05:55:50.770Z,15.50
2018-06-25T05:57:56.216Z,15.50
2018-06-25T06:00:01.727Z,15.60
2018-06-25T06:02:06.737Z,15.70
2018-06-25T06:04:11.735Z,15.60
2018-06-25T06:06:16.746Z,15.50
2018-06-25T06:08:21.812Z,15.60
2018-06-25T06:10:26.735Z,15.70
2018-06-25T06:12:31.691Z,15.50
2018-06-25T06:14:36.700Z,15.60
2018-06-25T06:16:41.636Z,15.60
2018-06-25T06:18:46.614Z,15.70
2018-06-25T06:20:51.623Z,15.70
2018-06-25T06:22:56.573Z,15.70
2018-06-25T06:25:01.555Z,15.70
2018-06-25T06:27:06.568Z,15.60
2018-06-25T06:29:11.544Z,15.60
2018-06-25T06:31:17.623Z,15.50
2018-06-25T06:33:22.976Z,15.60
2018-06-25T06:39:36.716Z,15.60
2018-06-25T06:41:41.825Z,15.70
2018-06-25T06:43:47.097Z,15.60
2018-06-25T06:45:52.284Z,15.60
2018-06-25T06:47:57.220Z,15.60
2018-06-25T06:50:02.380Z,15.70
2018-06-25T06:52:07.911Z,15.60
2018-06-25T06:54:13.190Z,15.60
2018-06-25T06:56:18.260Z,15.60
2018-06-25T06:58:23.455Z,15.70
2018-06-25T07:00:29.223Z,15.80
2018-06-25T07:02:35.485Z,15.80
2018-06-25T07:04:40.547Z,15.70
2018-06-25T07:06:45.495Z,15.80
2018-06-25T07:08:50.596Z,15.80
2018-06-25T07:10:55.527Z,15.70
2018-06-25T07:13:00.442Z,15.80
2018-06-25T07:15:05.956Z,15.90
2018-06-25T07:17:10.919Z,15.70
2018-06-25T07:19:15.843Z,15.80
2018-06-25T07:21:20.877Z,15.80
2018-06-25T07:23:25.824Z,15.90
2018-06-25T07:25:31.625Z,15.90
2018-06-25T07:27:36.994Z,15.90
2018-06-25T07:29:42.059Z,15.90
2018-06-25T07:31:47.035Z,15.90
2018-06-25T07:33:51.991Z,15.80
2018-06-25T07:35:57.283Z,15.80
2018-06-25T07:38:02.240Z,15.90
2018-06-25T07:40:07.390Z,15.90
2018-06-25T07:42:12.360Z,15.90
2018-06-25T07:44:17.323Z,15.90
2018-06-25T07:46:22.987Z,15.90
2018-06-25T07:48:27.976Z,16.00
2018-06-25T07:50:32.949Z,16.10
2018-06-25T07:52:37.895Z,16.10
2018-06-25T07:54:42.894Z,16.10
2018-06-25T07:56:47.972Z,16.10
2018-06-25T07:58:52.977Z,16.00
2018-06-25T08:00:57.919Z,15.80
2018-06-25T08:03:03.016Z,15.90
2018-06-25T08:05:08.941Z,15.90
2018-06-25T08:07:13.947Z,15.90
2018-06-25T08:09:19.049Z,16.00
2018-06-25T08:11:24.319Z,16.00
2018-06-25T08:13:29.268Z,16.00
2018-06-25T08:15:34.376Z,15.80
2018-06-25T08:17:39.390Z,15.90
2018-06-25T08:19:44.323Z,15.90
2018-06-25T08:23:55.313Z,16.00
2018-06-25T08:26:00.307Z,16.00
2018-06-25T08:28:05.260Z,16.00
2018-06-25T08:30:10.395Z,16.10
2018-06-25T08:32:15.393Z,16.10
2018-06-25T08:34:20.469Z,16.10
2018-06-25T08:36:25.435Z,16.20
2018-06-25T08:38:30.403Z,16.20
2018-06-25T08:40:35.391Z,16.10
2018-06-25T08:42:40.316Z,16.20
2018-06-25T08:44:45.223Z,16.30
2018-06-25T08:46:50.580Z,16.30
2018-06-25T08:48:55.835Z,16.30
2018-06-25T08:51:00.764Z,16.20
2018-06-25T08:53:05.765Z,16.20
2018-06-25T08:55:10.848Z,16.30
2018-06-25T08:57:15.765Z,16.30
2018-06-25T08:59:20.807Z,16.30
2018-06-25T09:01:26.806Z,16.30
2018-06-25T09:05:36.175Z,16.30
2018-06-25T09:07:42.039Z,16.40
2018-06-25T09:09:47.468Z,16.40
2018-06-25T09:11:52.401Z,16.30
2018-06-25T09:13:57.336Z,16.30
2018-06-25T09:16:02.343Z,16.40
2018-06-25T09:18:07.314Z,16.40
2018-06-25T09:20:12.394Z,16.40
2018-06-25T09:22:17.373Z,16.30
2018-06-25T09:24:22.294Z,16.40
2018-06-25T09:26:27.370Z,16.40
2018-06-25T09:28:32.392Z,16.40
2018-06-25T09:30:37.474Z,16.40
2018-06-25T09:32:42.446Z,16.40
2018-06-25T09:34:50.088Z,16.40
2018-06-25T09:36:55.040Z,16.30
2018-06-25T09:39:00.047Z,16.40
2018-06-25T09:41:05.080Z,16.40
2018-06-25T09:43:10.359Z,16.40
2018-06-25T09:45:15.362Z,16.50
2018-06-25T09:47:20.320Z,16.50
2018-06-25T09:49:25.364Z,16.40
2018-06-25T09:51:30.303Z,16.50
2018-06-25T09:53:35.643Z,16.30
2018-06-25T09:55:40.606Z,16.30
2018-06-25T09:57:45.590Z,16.50
2018-06-25T09:59:50.533Z,16.50
2018-06-25T10:01:55.506Z,16.50
2018-06-25T10:04:00.442Z,16.50
2018-06-25T10:06:05.490Z,16.60
2018-06-25T10:08:10.422Z,16.30
2018-06-25T10:10:15.326Z,16.50
2018-06-25T10:12:20.310Z,16.60
2018-06-25T10:14:25.237Z,16.60
2018-06-25T10:16:30.223Z,16.50
2018-06-25T10:18:35.246Z,16.60
2018-06-25T10:20:40.197Z,16.60
2018-06-25T10:22:45.477Z,16.70
2018-06-25T10:24:50.722Z,16.70
2018-06-25T10:26:55.726Z,16.80
2018-06-25T10:29:00.756Z,16.80
2018-06-25T10:31:05.847Z,16.90
2018-06-25T10:33:10.958Z,16.90
2018-06-25T10:35:15.873Z,16.90
2018-06-25T10:37:20.887Z,16.90
2018-06-25T10:39:25.864Z,16.90
2018-06-25T10:41:30.923Z,16.90
2018-06-25T10:43:35.867Z,16.80
2018-06-25T10:45:40.783Z,16.90
2018-06-25T10:47:45.836Z,17.00
2018-06-25T10:49:50.742Z,16.90
2018-06-25T10:51:55.844Z,17.00
2018-06-25T10:54:00.831Z,17.00
2018-06-25T10:56:05.867Z,17.00
2018-06-25T10:58:10.882Z,17.00
2018-06-25T11:00:16.245Z,17.00
2018-06-25T11:02:20.886Z,17.00
2018-06-25T11:04:26.049Z,17.00
2018-06-25T11:06:31.095Z,16.90
2018-06-25T11:08:36.090Z,16.90
2018-06-25T11:10:41.960Z,17.00
2018-06-25T11:12:46.907Z,17.00
2018-06-25T11:14:52.284Z,17.00
2018-06-25T11:17:01.410Z,17.10
2018-06-25T11:19:06.591Z,17.10
2018-06-25T11:21:11.589Z,17.00
2018-06-25T11:23:16.871Z,17.10
2018-06-25T11:25:21.991Z,17.10
2018-06-25T11:27:27.180Z,17.00
2018-06-25T11:29:32.099Z,17.10
2018-06-25T11:31:37.079Z,17.10
2018-06-25T11:33:42.051Z,17.10
2018-06-25T11:35:47.010Z,17.20
2018-06-25T11:37:52.038Z,17.30
2018-06-25T11:39:57.864Z,17.30
2018-06-25T11:42:02.824Z,17.40
2018-06-25T11:44:08.216Z,17.10
2018-06-25T11:46:13.226Z,17.20
2018-06-25T11:48:18.418Z,17.30
2018-06-25T11:50:23.330Z,17.30
2018-06-25T11:52:28.454Z,17.40
2018-06-25T11:54:33.470Z,17.40
2018-06-25T11:56:38.519Z,17.30
2018-06-25T11:58:43.443Z,17.40
2018-06-25T12:00:48.417Z,17.60
2018-06-25T12:02:53.465Z,17.70
2018-06-25T12:04:58.326Z,17.60
2018-06-25T12:07:03.388Z,17.50
2018-06-25T12:09:09.838Z,17.70
2018-06-25T12:11:15.015Z,17.90
2018-06-25T12:13:19.938Z,18.00
2018-06-25T12:15:25.718Z,17.90
2018-06-25T12:17:30.742Z,17.90
2018-06-25T12:19:35.764Z,17.80
2018-06-25T12:21:40.706Z,17.80
2018-06-25T12:23:45.639Z,17.90
2018-06-25T12:25:50.678Z,17.90
2018-06-25T12:27:55.806Z,17.90
2018-06-25T12:30:00.837Z,18.00
2018-06-25T12:32:05.955Z,17.90
2018-06-25T12:34:11.463Z,18.10
2018-06-25T12:36:16.719Z,18.40
2018-06-25T12:38:21.835Z,18.50
2018-06-25T12:40:27.927Z,18.50
2018-06-25T12:42:33.201Z,19.00
2018-06-25T12:44:38.161Z,18.80
2018-06-25T12:46:43.116Z,18.50
2018-06-25T12:48:48.463Z,18.40
2018-06-25T12:50:53.409Z,18.40
2018-06-25T12:52:58.427Z,18.50
2018-06-25T12:55:05.172Z,19.00
2018-06-25T12:57:10.276Z,18.60
2018-06-25T12:59:15.662Z,18.80
2018-06-25T13:01:21.105Z,19.10
2018-06-25T13:03:26.035Z,19.10
2018-06-25T13:05:31.448Z,19.40
2018-06-25T13:07:37.443Z,19.40
2018-06-25T13:11:46.856Z,18.80
2018-06-25T13:13:51.802Z,19.10
2018-06-25T13:15:56.816Z,19.00
2018-06-25T13:18:01.772Z,19.20
2018-06-25T13:20:06.863Z,19.30
2018-06-25T13:22:12.443Z,19.10
2018-06-25T13:24:17.364Z,18.90
2018-06-25T13:26:22.754Z,18.80
2018-06-25T13:28:27.842Z,19.10
2018-06-25T13:30:32.872Z,19.80
2018-06-25T13:32:38.177Z,20.10
2018-06-25T13:34:43.261Z,20.30
2018-06-25T13:36:48.421Z,20.10
2018-06-25T13:38:54.238Z,19.80
2018-06-25T13:40:59.148Z,19.60
2018-06-25T13:43:04.640Z,19.30
2018-06-25T13:45:09.699Z,19.10
2018-06-25T13:47:14.682Z,18.70
2018-06-25T13:49:19.642Z,18.90
2018-06-25T13:51:24.627Z,19.00
2018-06-25T13:53:29.626Z,18.80
2018-06-25T13:55:34.731Z,18.60
2018-06-25T13:57:39.773Z,18.70
2018-06-25T13:59:44.734Z,18.80
2018-06-25T14:01:49.780Z,19.10
2018-06-25T14:03:54.835Z,19.00
2018-06-25T14:05:59.870Z,19.10
2018-06-25T14:08:04.850Z,19.30
2018-06-25T14:10:09.883Z,19.10
2018-06-25T14:12:15.006Z,18.90
2018-06-25T14:14:19.918Z,18.80
2018-06-25T14:16:24.957Z,18.70
2018-06-25T14:18:29.918Z,18.70
2018-06-25T14:20:34.944Z,18.70
2018-06-25T14:22:40.179Z,18.50
2018-06-25T14:24:50.028Z,18.60
2018-06-25T14:26:59.264Z,18.50
2018-06-25T14:29:08.400Z,18.50
2018-06-25T14:35:33.007Z,18.40
2018-06-25T14:37:38.003Z,18.20
2018-06-25T14:39:42.963Z,18.20
2018-06-25T14:41:47.940Z,18.30
2018-06-25T14:43:52.907Z,18.40
2018-06-25T14:45:57.950Z,17.90
2018-06-25T14:48:02.957Z,18.20
2018-06-25T14:50:07.968Z,18.40
2018-06-25T14:52:13.002Z,18.50
2018-06-25T14:54:20.363Z,18.40
2018-06-25T14:56:26.068Z,18.50
2018-06-25T14:58:31.096Z,18.30
2018-06-25T15:00:36.048Z,18.40
2018-06-25T15:02:41.091Z,18.30
2018-06-25T15:04:46.079Z,18.20
2018-06-25T15:06:51.071Z,18.20
2018-06-25T15:08:56.111Z,18.20
2018-06-25T15:11:01.090Z,18.20
2018-06-25T15:13:06.116Z,18.20
2018-06-25T15:15:11.072Z,18.20
2018-06-25T15:17:16.450Z,17.70
2018-06-25T15:19:21.431Z,17.90
2018-06-25T15:21:26.535Z,18.10
2018-06-25T15:25:35.834Z,17.50
2018-06-25T15:27:40.799Z,17.70
2018-06-25T15:29:45.812Z,17.70
2018-06-25T15:31:50.905Z,17.70
2018-06-25T15:33:55.822Z,17.60
2018-06-25T15:36:00.924Z,17.70
2018-06-25T15:38:06.485Z,17.40
2018-06-25T15:40:11.510Z,17.40
2018-06-25T15:42:16.622Z,17.60
2018-06-25T15:44:21.540Z,17.60
2018-06-25T15:46:26.563Z,17.60
2018-06-25T15:48:31.644Z,17.50
2018-06-25T15:50:36.614Z,17.50
2018-06-25T15:52:41.613Z,17.50
2018-06-25T15:54:46.806Z,17.30
2018-06-25T15:56:51.773Z,17.50
2018-06-25T15:58:56.745Z,17.60
2018-06-25T16:01:01.810Z,17.60
2018-06-25T16:05:11.331Z,17.50
2018-06-25T16:07:16.383Z,17.40
2018-06-25T16:09:21.409Z,17.30
2018-06-25T16:11:26.379Z,17.30
2018-06-25T16:13:31.303Z,17.50
2018-06-25T16:15:36.329Z,17.50
2018-06-25T16:17:41.298Z,17.30
2018-06-25T16:19:46.328Z,17.30
2018-06-25T16:21:51.458Z,17.00
2018-06-25T16:23:56.427Z,17.10
2018-06-25T16:26:01.664Z,17.10
2018-06-25T16:28:06.879Z,17.00
2018-06-25T16:30:11.843Z,17.20
2018-06-25T16:32:16.867Z,17.00
2018-06-25T16:34:22.024Z,16.80
2018-06-25T16:36:26.962Z,17.30
2018-06-25T16:38:32.019Z,17.40
2018-06-25T16:40:37.036Z,17.40
2018-06-25T16:42:42.111Z,17.40
2018-06-25T16:44:47.148Z,17.30
2018-06-25T16:46:52.388Z,17.10
2018-06-25T16:48:57.357Z,17.20
2018-06-25T16:51:02.484Z,17.30
2018-06-25T16:53:07.790Z,17.20
2018-06-25T16:55:12.940Z,17.00
2018-06-25T16:57:17.899Z,17.20
2018-06-25T16:59:22.811Z,17.20
2018-06-25T17:01:27.755Z,17.00
2018-06-25T17:03:32.726Z,16.90
2018-06-25T17:05:38.105Z,17.00
2018-06-25T17:07:43.024Z,16.90
2018-06-25T17:09:47.988Z,17.00
2018-06-25T17:11:52.927Z,17.30
2018-06-25T17:13:58.372Z,17.20
2018-06-25T17:16:03.383Z,17.20
2018-06-25T17:18:08.678Z,17.30
2018-06-25T17:20:13.683Z,17.00
2018-06-25T17:22:18.690Z,17.00
2018-06-25T17:24:23.666Z,16.80
2018-06-25T17:26:28.659Z,17.00
2018-06-25T17:28:33.632Z,16.80
2018-06-25T17:30:38.592Z,16.90
2018-06-25T17:32:43.535Z,16.90
2018-06-25T17:34:48.537Z,16.90
2018-06-25T17:36:53.650Z,16.90
2018-06-25T17:38:58.705Z,16.80
2018-06-25T17:41:03.712Z,16.80
2018-06-25T17:43:08.671Z,16.40
2018-06-25T17:45:13.684Z,16.40
2018-06-25T17:47:18.635Z,16.40
2018-06-25T17:49:23.675Z,16.50
2018-06-25T17:51:28.647Z,16.40
2018-06-25T17:53:33.603Z,16.70
2018-06-25T17:55:38.607Z,16.50
2018-06-25T17:57:43.545Z,16.50
2018-06-25T17:59:48.461Z,16.50
2018-06-25T18:01:53.428Z,16.70
2018-06-25T18:03:59.381Z,16.50
2018-06-25T18:06:04.552Z,16.50
2018-06-25T18:08:09.493Z,16.50
2018-06-25T18:10:14.590Z,16.60
2018-06-25T18:12:19.649Z,16.80
2018-06-25T18:14:24.719Z,16.80
2018-06-25T18:16:29.768Z,16.80
2018-06-25T18:18:34.735Z,16.70
2018-06-25T18:20:39.778Z,16.70
2018-06-25T18:24:49.136Z,16.20
2018-06-25T18:26:54.257Z,16.30
2018-06-25T18:28:59.250Z,16.60
2018-06-25T18:31:04.285Z,16.40
2018-06-25T18:33:09.375Z,16.60
2018-06-25T18:35:14.496Z,16.70
2018-06-25T18:37:19.552Z,16.80
2018-06-25T18:39:24.536Z,16.50
2018-06-25T18:41:29.502Z,16.30
2018-06-25T18:43:34.485Z,16.40
2018-06-25T18:45:39.523Z,16.40
2018-06-25T18:47:44.430Z,16.50
2018-06-25T18:49:49.400Z,16.50
2018-06-25T18:51:54.394Z,16.50
2018-06-25T18:54:00.350Z,16.40
2018-06-25T18:56:05.547Z,16.40
2018-06-25T18:58:10.638Z,16.10
2018-06-25T19:00:15.630Z,16.10
2018-06-25T19:02:20.775Z,15.90
2018-06-25T19:04:25.714Z,16.10
2018-06-25T19:06:30.858Z,16.20
2018-06-25T19:08:35.828Z,16.20
2018-06-25T19:10:40.960Z,16.20
2018-06-25T19:12:46.041Z,16.30
2018-06-25T19:14:51.616Z,16.40
2018-06-25T19:16:56.526Z,16.50
2018-06-25T19:19:01.864Z,16.50
2018-06-25T19:21:07.008Z,16.40
2018-06-25T19:23:11.978Z,16.30
2018-06-25T19:25:16.953Z,16.40
2018-06-25T19:27:22.255Z,16.40
2018-06-25T19:29:27.281Z,16.20
2018-06-25T19:31:32.617Z,16.20
2018-06-25T19:33:37.767Z,16.20
2018-06-25T19:35:42.770Z,16.10
2018-06-25T19:37:48.001Z,16.20
2018-06-25T19:39:52.930Z,16.00
2018-06-25T19:41:57.935Z,16.10
2018-06-25T19:44:02.907Z,16.30
2018-06-25T19:46:07.900Z,16.30
2018-06-25T19:48:12.866Z,16.10
2018-06-25T19:50:17.887Z,16.10
2018-06-25T19:52:22.894Z,16.10
2018-06-25T19:54:27.857Z,16.30
2018-06-25T19:56:32.843Z,16.30
2018-06-25T19:58:38.218Z,16.10
2018-06-25T20:00:43.647Z,16.20
2018-06-25T20:02:48.684Z,16.20
2018-06-25T20:04:54.555Z,16.10
2018-06-25T20:06:59.555Z,15.90
2018-06-25T20:09:06.863Z,15.90
2018-06-25T20:13:16.183Z,15.60
2018-06-25T20:15:21.210Z,15.90
2018-06-25T20:17:26.111Z,16.00
2018-06-25T20:19:31.045Z,15.90
2018-06-25T20:21:36.328Z,16.20
2018-06-25T20:23:41.238Z,16.20
2018-06-25T20:25:46.282Z,16.20
2018-06-25T20:27:52.661Z,16.10
2018-06-25T20:29:58.059Z,16.00
2018-06-25T20:32:03.187Z,16.20
2018-06-25T20:34:08.241Z,16.10
2018-06-25T20:36:13.402Z,16.10
2018-06-25T20:38:18.378Z,16.20
2018-06-25T20:40:24.437Z,16.10
2018-06-25T20:42:29.433Z,15.90
2018-06-25T20:44:34.617Z,16.00
2018-06-25T20:46:39.667Z,15.90
2018-06-25T20:48:44.614Z,16.00
2018-06-25T20:50:49.755Z,15.90
2018-06-25T20:52:54.758Z,16.00
2018-06-25T20:55:00.989Z,15.90
2018-06-25T20:57:07.601Z,15.70
2018-06-25T20:59:13.099Z,15.80
2018-06-25T21:01:18.457Z,15.80
2018-06-25T21:03:24.350Z,15.90
2018-06-25T21:05:29.406Z,15.90
2018-06-25T21:07:34.411Z,16.00
2018-06-25T21:09:39.658Z,16.10
2018-06-25T21:11:44.683Z,16.10
2018-06-25T21:13:49.664Z,15.90
2018-06-25T21:15:55.201Z,16.00
2018-06-25T21:18:03.143Z,16.00
2018-06-25T21:20:08.776Z,16.00
2018-06-25T21:22:17.291Z,16.10
2018-06-25T21:24:23.177Z,16.00
2018-06-25T21:26:28.219Z,15.90
2018-06-25T21:28:35.546Z,15.90
2018-06-25T21:30:40.518Z,15.90
2018-06-25T21:32:45.813Z,16.10
2018-06-25T21:34:50.803Z,16.00
2018-06-25T21:36:55.848Z,16.00
2018-06-25T21:39:01.781Z,15.80
2018-06-25T21:41:07.526Z,15.90
2018-06-25T21:43:14.323Z,16.00
2018-06-25T21:45:19.352Z,15.90
2018-06-25T21:47:26.492Z,16.00
2018-06-25T21:49:31.633Z,16.00
2018-06-25T21:51:37.544Z,15.80
2018-06-25T21:53:42.978Z,15.90
2018-06-25T21:57:52.299Z,15.70
2018-06-25T21:59:57.489Z,15.90
2018-06-25T22:02:02.548Z,16.00
2018-06-25T22:06:11.956Z,15.90
2018-06-25T22:08:18.717Z,15.80
2018-06-25T22:12:28.690Z,15.90
2018-06-25T22:14:35.760Z,15.90
2018-06-25T22:16:41.639Z,15.90
2018-06-25T22:18:46.630Z,15.90
2018-06-25T22:20:54.002Z,15.90
2018-06-25T22:22:59.937Z,16.00
2018-06-25T22:25:05.211Z,16.00
2018-06-25T22:27:10.661Z,16.00
2018-06-25T22:29:15.546Z,16.00
2018-06-25T22:31:20.779Z,16.00
2018-06-25T22:33:27.628Z,15.90
2018-06-25T22:35:32.602Z,15.80
2018-06-25T22:37:38.107Z,15.80
2018-06-25T22:39:43.085Z,15.70
2018-06-25T22:41:48.679Z,15.80
2018-06-25T22:43:55.492Z,15.30
2018-06-25T22:46:00.497Z,15.60
2018-06-25T22:48:07.121Z,15.70
2018-06-25T22:50:12.294Z,15.70
2018-06-25T22:52:17.305Z,15.80
2018-06-25T22:54:22.517Z,15.80
2018-06-25T22:56:27.551Z,15.70
2018-06-25T22:58:32.485Z,15.70
2018-06-25T23:00:38.099Z,15.70
2018-06-25T23:02:43.160Z,15.70
2018-06-25T23:04:48.131Z,15.70
2018-06-25T23:06:53.453Z,15.70
2018-06-25T23:08:58.398Z,15.70
2018-06-25T23:11:03.334Z,15.70
2018-06-25T23:13:09.078Z,15.80
2018-06-25T23:15:14.071Z,15.70
2018-06-25T23:17:22.415Z,15.70
2018-06-25T23:19:28.026Z,15.80
2018-06-25T23:21:33.305Z,15.80
2018-06-25T23:23:38.607Z,15.90
2018-06-25T23:25:43.620Z,15.90
2018-06-25T23:27:48.616Z,15.80
2018-06-25T23:29:54.534Z,15.80
2018-06-25T23:31:59.471Z,15.80
2018-06-25T23:34:04.479Z,15.80
2018-06-25T23:36:09.446Z,15.70
2018-06-25T23:38:14.416Z,15.70
2018-06-25T23:40:19.491Z,15.70
2018-06-25T23:42:24.483Z,15.60
2018-06-25T23:44:29.402Z,15.60
2018-06-25T23:46:34.390Z,15.60
2018-06-25T23:48:39.313Z,15.60
2018-06-25T23:50:44.409Z,15.70
2018-06-25T23:52:49.446Z,15.70
2018-06-25T23:54:54.394Z,15.50
2018-06-25T23:59:03.715Z,15.70
